Time;durP1;ratioP1;P1;durP2;ratioP2;P2;SDS_P1;SDS_P2;PMS_P1;PMS_P2;Temp;Humidity;BMP_temperature;BMP_pressure;BME280_temperature;BME280_humidity;BME280_pressure;Samples;Min_cycle;Max_cycle;Signal;HPM_P1;HPM_P2
2022/05/14 00:01:58;;;;;;;;;;;19.40;80.50;;;;;;6092539;23;19981;-78
2022/05/14 00:04:25;;;;;;;;;;;19.40;80.50;;;;;;6098029;23;20354;-77
2022/05/14 00:06:52;;;;;;;;;;;19.40;80.90;;;;;;6094800;23;19944;-79
2022/05/14 00:09:19;;;;;;;;;;;19.40;80.30;;;;;;6093810;23;19917;-78
2022/05/14 00:14:31;;;;;;;;;;;19.50;80.10;;;;;;6096421;23;20011;-79
2022/05/14 00:16:57;;;;;;;;;;;19.60;80.10;;;;;;6098498;23;19921;-80
2022/05/14 00:19:24;;;;;;;;;;;19.60;80.80;;;;;;6101816;23;20322;-80
2022/05/14 00:21:51;;;;;;;;;;;19.60;80.70;;;;;;6097543;23;19917;-77
2022/05/14 00:24:18;;;;;;;;;;;19.60;80.10;;;;;;6094912;23;19921;-79
2022/05/14 00:26:45;;;;;;;;;;;19.60;79.70;;;;;;6097974;23;19984;-77
2022/05/14 00:29:13;;;;;;;;;;;19.60;79.80;;;;;;6097972;23;20338;-79
2022/05/14 00:31:40;;;;;;;;;;;19.70;79.80;;;;;;6096019;23;19993;-80
2022/05/14 00:34:07;;;;;;;;;;;19.70;80.10;;;;;;6101973;23;19944;-81
2022/05/14 00:36:33;;;;;;;;;;;19.70;78.80;;;;;;6098603;23;19968;-77
2022/05/14 00:39:00;;;;;;;;;;;19.70;78.50;;;;;;6096689;23;20323;-77
2022/05/14 00:41:28;;;;;;;;;;;19.80;78.70;;;;;;6097841;23;20369;-78
2022/05/14 00:43:59;;;;;;;;;;;19.70;78.20;;;;;;6096391;23;19924;-79
2022/05/14 00:46:47;;;;;;;;;;;19.80;80.00;;;;;;6098362;23;19924;-79
2022/05/14 00:49:14;;;;;;;;;;;19.70;81.20;;;;;;6074512;23;20247;-78
2022/05/14 00:51:42;;;;;;;;;;;19.70;81.50;;;;;;6096633;23;19924;-79
2022/05/14 00:54:11;;;;;;;;;;;19.60;83.00;;;;;;6101123;23;19932;-81
2022/05/14 00:56:40;;;;;;;;;;;19.60;81.80;;;;;;6100909;23;19925;-79
2022/05/14 00:59:08;;;;;;;;;;;19.60;81.40;;;;;;6096454;23;19925;-79
2022/05/14 01:01:36;;;;;;;;;;;19.70;81.30;;;;;;6097331;23;19917;-81
2022/05/14 01:04:04;;;;;;;;;;;19.60;81.80;;;;;;6096145;23;19924;-79
2022/05/14 01:06:33;;;;;;;;;;;19.60;81.80;;;;;;6098307;23;19988;-81
2022/05/14 01:09:00;;;;;;;;;;;19.60;82.10;;;;;;6095016;23;20011;-79
2022/05/14 01:11:30;;;;;;;;;;;19.60;81.90;;;;;;6094598;23;19925;-79
2022/05/14 01:13:56;;;;;;;;;;;19.60;83.10;;;;;;6093745;23;19921;-78
2022/05/14 01:16:26;;;;;;;;;;;19.60;82.10;;;;;;6096095;23;19917;-78
2022/05/14 01:18:52;;;;;;;;;;;19.60;83.30;;;;;;6097548;23;19917;-79
2022/05/14 01:21:27;;;;;;;;;;;19.60;82.90;;;;;;6097364;23;19942;-79
2022/05/14 01:26:46;;;;;;;;;;;19.60;82.70;;;;;;6097959;23;19917;-81
2022/05/14 01:29:19;;;;;;;;;;;19.60;82.10;;;;;;6092989;23;19937;-79
2022/05/14 01:31:47;;;;;;;;;;;19.60;82.20;;;;;;6096620;23;19921;-77
2022/05/14 01:34:19;;;;;;;;;;;19.50;83.70;;;;;;6095127;23;19921;-78
2022/05/14 01:36:45;;;;;;;;;;;19.50;83.70;;;;;;6097032;23;20269;-80
2022/05/14 01:39:13;;;;;;;;;;;19.50;83.40;;;;;;6090946;23;20382;-78
2022/05/14 01:41:39;;;;;;;;;;;19.60;83.50;;;;;;6069284;23;20255;-79
2022/05/14 01:44:06;;;;;;;;;;;19.60;83.90;;;;;;6066687;23;19918;-79
2022/05/14 01:46:33;;;;;;;;;;;19.60;84.50;;;;;;6094567;23;19917;-78
2022/05/14 01:49:00;;;;;;;;;;;19.50;84.60;;;;;;6091092;23;19921;-78
2022/05/14 01:51:28;;;;;;;;;;;19.50;84.50;;;;;;6089504;23;20255;-79
2022/05/14 01:53:55;;;;;;;;;;;19.40;85.20;;;;;;6096584;23;19917;-80
2022/05/14 01:56:22;;;;;;;;;;;19.40;85.70;;;;;;6069454;23;19917;-79
2022/05/14 01:58:49;;;;;;;;;;;19.30;85.30;;;;;;6091173;23;19954;-79
2022/05/14 02:01:18;;;;;;;;;;;19.20;85.60;;;;;;6094542;23;19925;-77
2022/05/14 02:03:46;;;;;;;;;;;19.20;86.40;;;;;;6092913;23;19924;-78
2022/05/14 02:06:14;;;;;;;;;;;19.10;86.20;;;;;;6091492;23;20228;-79
2022/05/14 02:08:41;;;;;;;;;;;19.10;85.60;;;;;;6096269;23;19921;-79
2022/05/14 02:11:08;;;;;;;;;;;19.10;86.00;;;;;;6094805;23;19918;-79
2022/05/14 02:13:36;;;;;;;;;;;19.10;85.80;;;;;;6096519;23;20012;-81
2022/05/14 02:16:03;;;;;;;;;;;19.20;85.40;;;;;;6072170;23;19941;-79
2022/05/14 02:18:30;;;;;;;;;;;19.10;86.50;;;;;;6098121;23;19972;-79
2022/05/14 02:20:57;;;;;;;;;;;19.10;85.30;;;;;;6096723;23;19965;-78
2022/05/14 02:23:23;;;;;;;;;;;19.10;86.10;;;;;;6092981;23;19917;-80
2022/05/14 02:25:50;;;;;;;;;;;19.10;86.60;;;;;;6093968;23;19917;-80
2022/05/14 02:28:17;;;;;;;;;;;19.10;87.60;;;;;;6093493;23;19973;-79
2022/05/14 02:30:44;;;;;;;;;;;19.00;88.60;;;;;;6094172;23;19957;-78
2022/05/14 02:33:12;;;;;;;;;;;18.90;90.00;;;;;;6099025;23;19921;-80
2022/05/14 02:35:39;;;;;;;;;;;18.80;90.30;;;;;;6094647;23;19922;-79
2022/05/14 02:38:06;;;;;;;;;;;18.70;90.50;;;;;;6092365;23;19981;-80
2022/05/14 02:40:33;;;;;;;;;;;18.70;90.70;;;;;;6089666;23;20386;-79
2022/05/14 02:43:00;;;;;;;;;;;18.70;90.70;;;;;;6092943;23;20331;-78
2022/05/14 02:45:27;;;;;;;;;;;18.60;90.80;;;;;;6107659;23;19921;-79
2022/05/14 02:47:53;;;;;;;;;;;18.70;90.60;;;;;;6093673;23;20291;-78
2022/05/14 02:50:20;;;;;;;;;;;18.70;90.70;;;;;;6095579;23;20001;-78
2022/05/14 02:52:47;;;;;;;;;;;18.50;91.10;;;;;;6102557;23;19922;-78
2022/05/14 02:55:14;;;;;;;;;;;18.40;91.50;;;;;;6089447;23;19925;-79
2022/05/14 02:57:42;;;;;;;;;;;18.50;91.60;;;;;;6096123;23;19905;-79
2022/05/14 03:00:10;;;;;;;;;;;18.50;91.20;;;;;;6107753;23;19917;-79
2022/05/14 03:02:37;;;;;;;;;;;18.60;91.00;;;;;;6100582;23;19918;-79
2022/05/14 03:05:05;;;;;;;;;;;18.60;91.10;;;;;;6091796;23;19918;-81
2022/05/14 03:07:32;;;;;;;;;;;18.50;91.20;;;;;;6093139;23;19969;-78
2022/05/14 03:09:59;;;;;;;;;;;18.50;91.50;;;;;;6093058;23;19925;-81
2022/05/14 03:12:25;;;;;;;;;;;18.50;91.60;;;;;;6092866;23;19918;-78
2022/05/14 03:14:52;;;;;;;;;;;18.50;91.40;;;;;;6067393;23;19921;-79
2022/05/14 03:17:19;;;;;;;;;;;18.60;91.10;;;;;;6087771;23;19921;-80
2022/05/14 03:19:46;;;;;;;;;;;18.70;91.20;;;;;;6091041;23;19977;-78
2022/05/14 03:22:13;;;;;;;;;;;18.70;90.80;;;;;;6090836;23;20357;-81
2022/05/14 03:24:40;;;;;;;;;;;18.70;90.90;;;;;;6093704;23;19918;-78
2022/05/14 03:27:07;;;;;;;;;;;18.80;90.80;;;;;;6100742;23;19918;-80
2022/05/14 03:29:34;;;;;;;;;;;18.80;90.40;;;;;;6096497;23;20331;-80
2022/05/14 03:32:01;;;;;;;;;;;18.80;90.10;;;;;;6092781;23;19918;-80
2022/05/14 03:34:28;;;;;;;;;;;18.90;90.40;;;;;;6091334;23;19950;-80
2022/05/14 03:36:55;;;;;;;;;;;18.80;90.80;;;;;;6093718;23;19918;-80
2022/05/14 03:39:21;;;;;;;;;;;18.70;91.20;;;;;;6090604;23;20291;-82
2022/05/14 03:41:48;;;;;;;;;;;18.60;91.60;;;;;;6093184;23;20334;-80
2022/05/14 03:44:15;;;;;;;;;;;18.60;91.60;;;;;;6093118;23;19922;-80
2022/05/14 03:46:42;;;;;;;;;;;18.60;91.60;;;;;;6091969;23;19964;-82
2022/05/14 03:49:09;;;;;;;;;;;18.60;91.60;;;;;;6095190;23;19918;-79
2022/05/14 03:51:36;;;;;;;;;;;18.60;91.80;;;;;;6090222;23;19925;-82
2022/05/14 03:54:04;;;;;;;;;;;18.50;91.90;;;;;;6091469;23;19968;-81
2022/05/14 03:56:32;;;;;;;;;;;18.50;91.70;;;;;;6090574;23;19922;-80
2022/05/14 03:58:58;;;;;;;;;;;18.40;91.60;;;;;;6067974;23;19942;-81
2022/05/14 04:01:25;;;;;;;;;;;18.40;91.50;;;;;;6094457;23;20395;-78
2022/05/14 04:03:52;;;;;;;;;;;18.40;91.60;;;;;;6070859;23;19917;-80
2022/05/14 04:06:21;;;;;;;;;;;18.40;91.40;;;;;;6089970;23;20351;-82
2022/05/14 04:08:47;;;;;;;;;;;18.40;91.90;;;;;;6069725;23;20374;-81
2022/05/14 04:11:14;;;;;;;;;;;18.30;92.20;;;;;;6093539;23;19922;-79
2022/05/14 04:13:41;;;;;;;;;;;18.20;92.30;;;;;;6095420;23;20346;-81
2022/05/14 04:16:09;;;;;;;;;;;18.20;92.70;;;;;;6089318;23;19977;-80
2022/05/14 04:18:36;;;;;;;;;;;18.00;93.20;;;;;;6091193;23;19926;-80
2022/05/14 04:21:02;;;;;;;;;;;18.10;93.20;;;;;;6092772;23;19921;-80
2022/05/14 04:23:30;;;;;;;;;;;18.00;93.00;;;;;;6067389;23;19925;-80
2022/05/14 04:25:57;;;;;;;;;;;18.10;93.10;;;;;;6092848;23;20449;-79
2022/05/14 04:28:25;;;;;;;;;;;17.90;93.30;;;;;;6093734;23;19969;-80
2022/05/14 04:30:52;;;;;;;;;;;17.90;93.70;;;;;;6090357;23;20343;-81
2022/05/14 04:33:19;;;;;;;;;;;17.90;93.90;;;;;;6092992;23;19929;-81
2022/05/14 04:35:46;;;;;;;;;;;17.90;93.90;;;;;;6095141;23;19980;-81
2022/05/14 04:38:12;;;;;;;;;;;17.90;93.90;;;;;;6089116;23;20366;-82
2022/05/14 04:40:40;;;;;;;;;;;17.90;93.90;;;;;;6096897;23;19929;-79
2022/05/14 04:43:08;;;;;;;;;;;17.90;93.90;;;;;;6092700;23;19921;-80
2022/05/14 04:45:35;;;;;;;;;;;17.90;94.00;;;;;;6093643;23;19925;-81
2022/05/14 04:48:02;;;;;;;;;;;17.90;93.70;;;;;;6094434;23;19921;-81
2022/05/14 04:50:29;;;;;;;;;;;18.00;93.50;;;;;;6090090;23;19930;-81
2022/05/14 04:52:55;;;;;;;;;;;18.00;93.40;;;;;;6091025;23;19964;-82
2022/05/14 04:55:22;;;;;;;;;;;17.90;93.70;;;;;;6090238;23;19929;-81
2022/05/14 04:57:49;;;;;;;;;;;18.00;93.70;;;;;;6090217;23;19974;-80
2022/05/14 05:00:16;;;;;;;;;;;17.90;93.80;;;;;;6094281;23;20402;-80
2022/05/14 05:05:32;;;;;;;;;;;18.00;93.70;;;;;;6068892;23;20421;-81
2022/05/14 05:07:59;;;;;;;;;;;18.00;93.30;;;;;;6093344;23;19962;-80
2022/05/14 05:10:26;;;;;;;;;;;18.00;93.60;;;;;;6101271;23;19933;-79
2022/05/14 05:12:53;;;;;;;;;;;18.00;93.60;;;;;;6101763;23;19906;-80
2022/05/14 05:15:20;;;;;;;;;;;18.00;93.40;;;;;;6093626;23;19929;-81
2022/05/14 05:17:46;;;;;;;;;;;18.00;93.40;;;;;;6101071;23;20303;-78
2022/05/14 05:20:13;;;;;;;;;;;18.00;93.40;;;;;;6101375;23;20369;-81
2022/05/14 05:22:40;;;;;;;;;;;18.10;93.00;;;;;;6095941;23;19925;-80
2022/05/14 05:25:08;;;;;;;;;;;18.20;92.20;;;;;;6090063;23;20287;-80
2022/05/14 05:27:35;;;;;;;;;;;18.20;91.30;;;;;;6094564;23;20392;-80
2022/05/14 05:30:03;;;;;;;;;;;18.20;91.50;;;;;;6097066;23;19922;-80
2022/05/14 05:32:30;;;;;;;;;;;18.20;92.20;;;;;;6096596;23;19929;-80
2022/05/14 05:34:57;;;;;;;;;;;18.20;92.60;;;;;;6096429;23;19922;-78
2022/05/14 05:37:24;;;;;;;;;;;18.20;92.60;;;;;;6105822;23;19985;-78
2022/05/14 05:39:50;;;;;;;;;;;18.30;92.70;;;;;;6096059;23;20251;-81
2022/05/14 05:42:17;;;;;;;;;;;18.30;92.60;;;;;;6103561;23;19921;-81
2022/05/14 05:44:45;;;;;;;;;;;18.40;93.10;;;;;;6096938;23;20343;-78
2022/05/14 05:47:12;;;;;;;;;;;18.40;92.80;;;;;;6102534;23;19922;-79
2022/05/14 05:49:42;;;;;;;;;;;18.30;93.10;;;;;;6097109;23;19926;-81
2022/05/14 05:52:11;;;;;;;;;;;18.30;93.00;;;;;;6098486;23;19969;-81
2022/05/14 05:57:30;;;;;;;;;;;18.30;93.20;;;;;;6098359;23;20239;-79
2022/05/14 05:59:57;;;;;;;;;;;18.30;93.20;;;;;;6102958;23;20394;-80
2022/05/14 06:02:24;;;;;;;;;;;18.30;92.20;;;;;;6093352;23;19921;-78
2022/05/14 06:04:51;;;;;;;;;;;18.30;92.10;;;;;;6097369;23;19905;-78
2022/05/14 06:07:18;;;;;;;;;;;18.30;92.10;;;;;;6103335;23;19929;-81
2022/05/14 06:09:46;;;;;;;;;;;18.30;92.50;;;;;;6106148;23;19922;-77
2022/05/14 06:12:14;;;;;;;;;;;18.40;92.60;;;;;;6103316;23;19929;-78
2022/05/14 06:14:42;;;;;;;;;;;18.50;92.50;;;;;;6096593;23;20334;-78
2022/05/14 06:17:08;;;;;;;;;;;18.60;92.10;;;;;;6101834;23;19925;-80
2022/05/14 06:19:35;;;;;;;;;;;18.70;91.80;;;;;;6098462;23;19933;-81
2022/05/14 06:22:03;;;;;;;;;;;18.80;92.00;;;;;;6095343;23;19923;-79
2022/05/14 06:24:30;;;;;;;;;;;18.70;91.30;;;;;;6096615;23;19921;-82
2022/05/14 06:26:57;;;;;;;;;;;18.60;90.70;;;;;;6101494;23;19921;-80
2022/05/14 06:29:24;;;;;;;;;;;18.60;90.80;;;;;;6102238;23;19977;-81
2022/05/14 06:31:50;;;;;;;;;;;18.80;91.70;;;;;;6097617;23;20028;-78
2022/05/14 06:34:17;;;;;;;;;;;18.70;91.10;;;;;;6100538;23;19928;-78
2022/05/14 06:36:44;;;;;;;;;;;18.80;91.10;;;;;;6099841;23;19921;-79
2022/05/14 06:39:11;;;;;;;;;;;18.90;90.90;;;;;;6093557;23;19929;-79
2022/05/14 06:41:38;;;;;;;;;;;19.00;90.70;;;;;;6094877;23;19922;-79
2022/05/14 06:44:05;;;;;;;;;;;19.30;90.80;;;;;;6092924;23;19921;-78
2022/05/14 06:46:32;;;;;;;;;;;19.40;90.20;;;;;;6091068;23;20338;-79
2022/05/14 06:48:59;;;;;;;;;;;19.60;90.30;;;;;;6100223;23;19922;-79
2022/05/14 06:51:27;;;;;;;;;;;19.60;89.20;;;;;;6091250;23;20303;-78
2022/05/14 06:53:55;;;;;;;;;;;19.70;88.70;;;;;;6092011;23;19941;-79
2022/05/14 06:56:22;;;;;;;;;;;19.60;88.80;;;;;;6097191;23;19973;-79
2022/05/14 06:58:50;;;;;;;;;;;19.70;86.90;;;;;;6089744;23;19932;-80
2022/05/14 07:01:17;;;;;;;;;;;19.80;88.30;;;;;;6089239;23;19925;-80
2022/05/14 07:06:43;;;;;;;;;;;20.00;85.60;;;;;;6065302;23;19934;-79
2022/05/14 07:09:15;;;;;;;;;;;20.10;84.80;;;;;;6092216;23;20351;-77
2022/05/14 07:11:42;;;;;;;;;;;20.10;82.90;;;;;;6094125;23;19926;-80
2022/05/14 07:14:10;;;;;;;;;;;20.30;84.20;;;;;;6093585;23;19925;-79
2022/05/14 07:16:37;;;;;;;;;;;20.30;84.10;;;;;;6089891;23;19941;-79
2022/05/14 07:19:06;;;;;;;;;;;20.50;83.90;;;;;;6090228;23;20362;-79
2022/05/14 07:21:34;;;;;;;;;;;20.70;82.90;;;;;;6073636;23;19977;-79
2022/05/14 07:24:03;;;;;;;;;;;20.80;81.60;;;;;;6090216;23;19929;-78
2022/05/14 07:26:30;;;;;;;;;;;20.90;81.50;;;;;;6067292;23;19929;-79
2022/05/14 07:28:56;;;;;;;;;;;20.90;81.00;;;;;;6091586;23;19922;-78
2022/05/14 07:31:23;;;;;;;;;;;21.00;80.10;;;;;;6091756;23;20299;-80
2022/05/14 07:33:51;;;;;;;;;;;21.10;80.20;;;;;;6091185;23;19937;-78
2022/05/14 07:36:20;;;;;;;;;;;21.20;79.30;;;;;;6092473;23;19921;-78
2022/05/14 07:38:47;;;;;;;;;;;21.20;78.10;;;;;;6092357;23;19926;-78
2022/05/14 07:41:15;;;;;;;;;;;21.30;77.80;;;;;;6092664;23;19970;-78
2022/05/14 07:43:43;;;;;;;;;;;21.50;77.70;;;;;;6092983;23;20307;-81
2022/05/14 07:46:13;;;;;;;;;;;21.70;76.00;;;;;;6094109;23;20387;-79
2022/05/14 07:48:40;;;;;;;;;;;21.70;75.70;;;;;;6090237;23;20000;-78
2022/05/14 07:51:09;;;;;;;;;;;21.80;75.70;;;;;;6092931;23;19925;-81
2022/05/14 07:53:36;;;;;;;;;;;21.90;75.00;;;;;;6070878;23;20307;-79
2022/05/14 07:56:04;;;;;;;;;;;22.00;74.40;;;;;;6093183;23;19950;-78
2022/05/14 07:58:31;;;;;;;;;;;22.00;74.00;;;;;;6090101;23;19929;-80
2022/05/14 08:00:58;;;;;;;;;;;21.90;74.30;;;;;;6089853;23;19925;-79
2022/05/14 08:03:26;;;;;;;;;;;21.70;75.50;;;;;;6069986;23;19949;-78
2022/05/14 08:05:54;;;;;;;;;;;21.70;75.50;;;;;;6089274;23;19930;-79
2022/05/14 08:08:21;;;;;;;;;;;21.80;75.20;;;;;;6090828;23;19958;-79
2022/05/14 08:10:51;;;;;;;;;;;21.90;75.50;;;;;;6068985;23;19921;-79
2022/05/14 08:13:19;;;;;;;;;;;22.00;74.40;;;;;;6093155;23;19929;-77
2022/05/14 08:15:47;;;;;;;;;;;22.20;74.10;;;;;;6089372;23;20353;-80
2022/05/14 08:18:14;;;;;;;;;;;22.30;74.10;;;;;;6095720;23;20028;-81
2022/05/14 08:20:41;;;;;;;;;;;22.40;74.40;;;;;;6089273;23;20320;-79
2022/05/14 08:25:55;;;;;;;;;;;22.80;73.20;;;;;;6070942;23;19950;-80
2022/05/14 08:28:22;;;;;;;;;;;22.90;71.20;;;;;;6092714;23;19925;-81
2022/05/14 08:30:49;;;;;;;;;;;22.90;71.20;;;;;;6094489;23;20308;-78
2022/05/14 08:33:16;;;;;;;;;;;22.90;71.60;;;;;;6071789;23;19925;-81
2022/05/14 08:35:43;;;;;;;;;;;23.10;72.50;;;;;;6091156;23;19929;-78
2022/05/14 08:38:11;;;;;;;;;;;23.20;72.10;;;;;;6089494;23;19925;-80
2022/05/14 08:40:39;;;;;;;;;;;23.30;72.20;;;;;;6093693;23;19921;-77
2022/05/14 08:43:12;;;;;;;;;;;23.20;68.80;;;;;;6070006;23;19928;-78
2022/05/14 08:45:38;;;;;;;;;;;23.30;70.00;;;;;;6088479;23;20342;-79
2022/05/14 08:48:12;;;;;;;;;;;23.40;69.80;;;;;;6099691;23;19988;-81
2022/05/14 08:50:39;;;;;;;;;;;23.40;69.50;;;;;;6095507;23;19931;-80
2022/05/14 08:53:11;;;;;;;;;;;23.70;69.60;;;;;;6093804;23;19960;-78
2022/05/14 08:55:46;;;;;;;;;;;23.80;71.20;;;;;;6092016;23;19922;-78
2022/05/14 08:58:45;;;;;;;;;;;23.80;69.70;;;;;;6068771;23;19921;-78
2022/05/14 09:01:14;;;;;;;;;;;23.90;68.50;;;;;;6070670;23;19922;-80
2022/05/14 09:03:44;;;;;;;;;;;24.10;68.80;;;;;;6068429;23;19946;-81
2022/05/14 09:06:11;;;;;;;;;;;24.50;67.20;;;;;;6095409;23;20267;-80
2022/05/14 09:08:39;;;;;;;;;;;24.80;65.10;;;;;;6070198;23;20307;-80
2022/05/14 09:11:16;;;;;;;;;;;24.30;65.20;;;;;;6090123;23;19944;-80
2022/05/14 09:13:54;;;;;;;;;;;24.10;65.80;;;;;;6092364;23;19922;-79
2022/05/14 09:16:23;;;;;;;;;;;24.50;67.20;;;;;;6099178;23;19946;-80
2022/05/14 09:18:53;;;;;;;;;;;24.60;64.00;;;;;;6074568;23;19974;-81
2022/05/14 09:21:24;;;;;;;;;;;24.60;65.30;;;;;;6089832;23;20238;-80
2022/05/14 09:24:03;;;;;;;;;;;24.90;62.40;;;;;;6096662;23;19932;-80
2022/05/14 09:26:37;;;;;;;;;;;24.40;63.70;;;;;;6101851;23;20135;-80
2022/05/14 09:29:24;;;;;;;;;;;24.60;63.50;;;;;;6093980;23;19922;-78
2022/05/14 09:32:02;;;;;;;;;;;24.60;62.50;;;;;;6068459;23;19948;-81
2022/05/14 09:34:33;;;;;;;;;;;24.90;62.10;;;;;;6091263;23;19996;-78
2022/05/14 09:37:20;;;;;;;;;;;25.20;61.90;;;;;;6091374;23;19925;-79
2022/05/14 09:40:01;;;;;;;;;;;24.70;60.90;;;;;;6065891;23;19976;-80
2022/05/14 09:42:41;;;;;;;;;;;24.80;64.60;;;;;;6087943;23;20258;-80
2022/05/14 09:45:20;;;;;;;;;;;25.20;62.00;;;;;;6089602;23;19922;-79
2022/05/14 09:47:48;;;;;;;;;;;25.30;61.20;;;;;;6089138;23;19964;-82
2022/05/14 09:50:23;;;;;;;;;;;25.40;62.10;;;;;;6067146;23;20254;-81
2022/05/14 09:53:05;;;;;;;;;;;25.70;62.30;;;;;;6068030;23;20017;-79
2022/05/14 09:56:04;;;;;;;;;;;25.60;60.50;;;;;;6089075;23;20369;-82
2022/05/14 09:58:34;;;;;;;;;;;25.70;61.10;;;;;;6073096;23;20071;-80
2022/05/14 10:01:09;;;;;;;;;;;25.90;60.70;;;;;;6091251;23;19925;-81
2022/05/14 10:03:45;;;;;;;;;;;26.20;59.90;;;;;;6090166;23;20339;-82
2022/05/14 10:06:11;;;;;;;;;;;26.20;61.20;;;;;;6091324;23;19925;-81
2022/05/14 10:08:41;;;;;;;;;;;26.30;59.20;;;;;;6090526;23;20393;-81
2022/05/14 10:11:11;;;;;;;;;;;26.30;60.10;;;;;;6091383;23;19922;-79
2022/05/14 10:13:38;;;;;;;;;;;26.30;59.50;;;;;;6089722;23;19937;-82
2022/05/14 10:16:25;;;;;;;;;;;26.30;59.40;;;;;;6089252;23;19993;-80
2022/05/14 10:19:11;;;;;;;;;;;26.20;58.40;;;;;;6085618;23;20004;-82
2022/05/14 10:21:40;;;;;;;;;;;25.80;58.00;;;;;;6091412;23;19922;-79
2022/05/14 10:27:18;;;;;;;;;;;25.80;61.60;;;;;;6066955;23;20370;-81
2022/05/14 10:29:54;;;;;;;;;;;26.00;60.00;;;;;;6095404;23;19921;-79
2022/05/14 10:32:24;;;;;;;;;;;26.10;59.40;;;;;;6091852;23;20004;-78
2022/05/14 10:35:00;;;;;;;;;;;26.40;57.80;;;;;;6092689;23;19977;-82
2022/05/14 10:37:34;;;;;;;;;;;26.40;59.30;;;;;;6093416;23;19922;-82
2022/05/14 10:40:10;;;;;;;;;;;26.70;59.40;;;;;;6075298;23;19926;-81
2022/05/14 10:42:40;;;;;;;;;;;26.90;59.20;;;;;;6098256;23;19953;-81
2022/05/14 10:45:14;;;;;;;;;;;26.90;57.60;;;;;;6096615;23;19922;-82
2022/05/14 10:47:45;;;;;;;;;;;27.10;58.30;;;;;;6100164;23;19969;-80
2022/05/14 10:50:14;;;;;;;;;;;27.20;57.70;;;;;;6097555;23;19925;-81
2022/05/14 10:52:42;;;;;;;;;;;27.40;55.80;;;;;;6096968;23;19925;-82
2022/05/14 10:55:14;;;;;;;;;;;27.40;55.30;;;;;;6096562;23;19945;-82
2022/05/14 10:57:43;;;;;;;;;;;26.60;56.20;;;;;;6094848;23;20458;-79
2022/05/14 11:00:21;;;;;;;;;;;26.40;58.00;;;;;;6097642;23;19984;-83
2022/05/14 11:03:11;;;;;;;;;;;26.80;57.00;;;;;;6099476;23;19926;-80
2022/05/14 11:06:04;;;;;;;;;;;26.90;55.50;;;;;;6092010;23;19925;-81
2022/05/14 11:08:33;;;;;;;;;;;27.10;56.60;;;;;;6096257;23;19925;-83
2022/05/14 11:11:02;;;;;;;;;;;27.40;55.90;;;;;;6098478;23;19928;-81
2022/05/14 11:13:29;;;;;;;;;;;27.60;54.80;;;;;;6095900;23;19921;-83
2022/05/14 11:15:59;;;;;;;;;;;27.60;53.60;;;;;;6095378;23;20306;-81
2022/05/14 11:18:27;;;;;;;;;;;27.80;54.00;;;;;;6094026;23;19932;-81
2022/05/14 11:20:55;;;;;;;;;;;27.70;54.50;;;;;;6098905;23;19921;-80
2022/05/14 11:23:27;;;;;;;;;;;27.70;50.70;;;;;;6097018;23;19921;-80
2022/05/14 11:26:09;;;;;;;;;;;27.60;52.40;;;;;;6094869;23;20306;-80
2022/05/14 11:28:36;;;;;;;;;;;27.80;53.10;;;;;;6102975;23;19940;-81
2022/05/14 11:31:29;;;;;;;;;;;28.10;52.00;;;;;;6096862;23;20307;-80
2022/05/14 11:33:58;;;;;;;;;;;27.90;51.80;;;;;;6099390;23;19980;-81
2022/05/14 11:36:29;;;;;;;;;;;27.40;53.00;;;;;;6098532;23;20298;-81
2022/05/14 11:39:08;;;;;;;;;;;27.60;53.50;;;;;;6096954;23;19921;-81
2022/05/14 11:41:36;;;;;;;;;;;27.60;53.60;;;;;;6097097;23;19972;-79
2022/05/14 11:44:06;;;;;;;;;;;27.80;52.50;;;;;;6100753;23;19929;-80
2022/05/14 11:46:50;;;;;;;;;;;27.80;53.00;;;;;;6093286;23;19929;-82
2022/05/14 11:49:46;;;;;;;;;;;28.00;53.30;;;;;;6096790;23;19925;-81
2022/05/14 11:52:20;;;;;;;;;;;28.20;53.20;;;;;;6090443;23;19972;-83
2022/05/14 11:54:54;;;;;;;;;;;28.40;51.60;;;;;;6094281;23;19977;-83
2022/05/14 11:57:21;;;;;;;;;;;28.40;50.70;;;;;;6072247;23;20228;-80
2022/05/14 11:59:56;;;;;;;;;;;28.50;50.40;;;;;;6098083;23;19922;-85
2022/05/14 12:02:43;;;;;;;;;;;28.50;50.80;;;;;;6073679;23;19921;-84
2022/05/14 12:05:15;;;;;;;;;;;28.20;51.60;;;;;;6104548;23;20305;-84
2022/05/14 12:08:01;;;;;;;;;;;28.10;52.70;;;;;;6101157;23;19925;-80
2022/05/14 12:10:48;;;;;;;;;;;28.20;52.20;;;;;;6083221;23;20460;-81
2022/05/14 12:13:34;;;;;;;;;;;28.60;51.70;;;;;;6093976;23;19921;-84
2022/05/14 12:16:01;;;;;;;;;;;29.20;51.20;;;;;;6096613;23;19973;-82
2022/05/14 12:18:28;;;;;;;;;;;28.60;51.60;;;;;;6097914;23;19932;-83
2022/05/14 12:20:59;;;;;;;;;;;28.20;52.10;;;;;;6099286;23;19922;-83
2022/05/14 12:23:32;;;;;;;;;;;28.20;50.60;;;;;;6094221;23;19925;-81
2022/05/14 12:25:59;;;;;;;;;;;27.70;51.50;;;;;;6100322;23;19928;-80
2022/05/14 12:28:29;;;;;;;;;;;27.80;53.90;;;;;;6095463;23;20462;-83
2022/05/14 12:34:03;;;;;;;;;;;28.00;54.00;;;;;;6098485;23;19925;-82
2022/05/14 12:36:53;;;;;;;;;;;28.10;50.80;;;;;;6096500;23;19921;-82
2022/05/14 12:39:21;;;;;;;;;;;28.30;51.40;;;;;;6090896;23;19968;-83
2022/05/14 12:41:57;;;;;;;;;;;29.00;49.60;;;;;;6098451;23;19921;-82
2022/05/14 12:44:25;;;;;;;;;;;29.00;48.00;;;;;;6095403;23;19921;-81
2022/05/14 12:46:54;;;;;;;;;;;29.60;49.50;;;;;;6097354;23;19949;-80
2022/05/14 12:49:23;;;;;;;;;;;30.00;46.10;;;;;;6096020;23;19921;-81
2022/05/14 12:51:51;;;;;;;;;;;30.20;46.00;;;;;;6096357;23;19921;-79
2022/05/14 12:54:19;;;;;;;;;;;29.50;46.30;;;;;;6099595;23;19925;-83
2022/05/14 12:56:46;;;;;;;;;;;29.60;47.30;;;;;;6071880;23;19929;-83
2022/05/14 12:59:13;;;;;;;;;;;29.90;46.10;;;;;;6096758;23;19925;-80
2022/05/14 13:01:40;;;;;;;;;;;30.00;45.50;;;;;;6100997;23;19921;-80
2022/05/14 13:04:07;;;;;;;;;;;30.00;42.80;;;;;;6099678;23;20006;-81
2022/05/14 13:06:34;;;;;;;;;;;29.40;44.20;;;;;;6095339;23;20239;-80
2022/05/14 13:09:05;;;;;;;;;;;29.60;42.40;;;;;;6099728;23;19921;-82
2022/05/14 13:11:34;;;;;;;;;;;29.70;42.90;;;;;;6096463;23;20280;-84
2022/05/14 13:14:15;;;;;;;;;;;29.70;42.40;;;;;;6098514;23;19989;-80
2022/05/14 13:16:50;;;;;;;;;;;29.60;43.10;;;;;;6100105;23;19928;-84
2022/05/14 13:19:19;;;;;;;;;;;29.80;43.40;;;;;;6101069;23;19941;-79
2022/05/14 13:21:47;;;;;;;;;;;30.00;41.00;;;;;;6095666;23;20398;-83
2022/05/14 13:24:24;;;;;;;;;;;30.00;39.40;;;;;;6101000;23;19976;-80
2022/05/14 13:26:52;;;;;;;;;;;29.90;37.20;;;;;;6071907;23;19925;-83
2022/05/14 13:29:22;;;;;;;;;;;29.90;39.60;;;;;;6096926;23;19921;-80
2022/05/14 13:31:51;;;;;;;;;;;30.00;39.40;;;;;;6096149;23;19921;-84
2022/05/14 13:37:17;;;;;;;;;;;29.60;37.20;;;;;;6101508;23;19922;-82
2022/05/14 13:39:54;;;;;;;;;;;28.90;37.60;;;;;;6105478;23;19979;-81
2022/05/14 13:42:26;;;;;;;;;;;29.20;40.30;;;;;;6122990;23;19926;-81
2022/05/14 13:45:03;;;;;;;;;;;29.70;38.10;;;;;;6096280;23;19921;-80
2022/05/14 13:47:30;;;;;;;;;;;29.40;36.60;;;;;;6073770;23;20346;-84
2022/05/14 13:49:58;;;;;;;;;;;29.10;36.00;;;;;;6093384;23;19949;-80
2022/05/14 13:52:26;;;;;;;;;;;29.60;39.10;;;;;;6095934;23;19921;-84
2022/05/14 13:55:04;;;;;;;;;;;30.20;36.40;;;;;;6099136;23;19925;-81
2022/05/14 13:57:31;;;;;;;;;;;30.40;36.90;;;;;;6097593;23;19932;-80
2022/05/14 14:00:21;;;;;;;;;;;30.10;41.90;;;;;;6100357;23;19987;-84
2022/05/14 14:03:00;;;;;;;;;;;30.00;38.70;;;;;;6110452;23;19925;-82
2022/05/14 14:05:27;;;;;;;;;;;29.10;39.80;;;;;;6100384;23;20346;-83
2022/05/14 14:07:55;;;;;;;;;;;28.60;39.20;;;;;;6097216;23;19925;-82
2022/05/14 14:10:33;;;;;;;;;;;28.50;40.70;;;;;;6102031;23;19992;-84
2022/05/14 14:13:01;;;;;;;;;;;28.50;39.10;;;;;;6071057;23;20246;-83
2022/05/14 14:15:28;;;;;;;;;;;28.60;37.70;;;;;;6099147;23;19945;-82
2022/05/14 14:17:56;;;;;;;;;;;28.60;40.40;;;;;;6096445;23;19976;-80
2022/05/14 14:20:24;;;;;;;;;;;28.20;39.40;;;;;;6102696;23;19921;-80
2022/05/14 14:22:51;;;;;;;;;;;28.10;41.30;;;;;;6096748;23;20306;-82
2022/05/14 14:25:18;;;;;;;;;;;28.10;41.70;;;;;;6097921;23;19905;-83
2022/05/14 14:27:45;;;;;;;;;;;28.00;42.00;;;;;;6097289;23;19929;-85
2022/05/14 14:30:13;;;;;;;;;;;28.30;42.00;;;;;;6101806;23;20357;-83
2022/05/14 14:32:40;;;;;;;;;;;28.40;42.60;;;;;;6098714;23;19969;-80
2022/05/14 14:35:07;;;;;;;;;;;28.60;44.10;;;;;;6096561;23;19929;-81
2022/05/14 14:37:38;;;;;;;;;;;28.50;42.30;;;;;;6095366;23;20350;-80
2022/05/14 14:40:06;;;;;;;;;;;28.60;42.80;;;;;;6121953;23;20323;-85
2022/05/14 14:42:33;;;;;;;;;;;28.40;43.20;;;;;;6098001;23;19977;-85
2022/05/14 14:45:00;;;;;;;;;;;28.60;43.70;;;;;;6092176;23;20004;-81
2022/05/14 14:47:27;;;;;;;;;;;28.90;43.10;;;;;;6099285;23;20342;-85
2022/05/14 14:49:54;;;;;;;;;;;29.20;45.50;;;;;;6092565;23;19925;-81
2022/05/14 14:52:21;;;;;;;;;;;29.70;47.70;;;;;;6104415;23;20302;-83
2022/05/14 14:54:47;;;;;;;;;;;30.00;45.50;;;;;;6094153;23;19928;-84
2022/05/14 14:57:14;;;;;;;;;;;30.10;46.10;;;;;;6096767;23;19926;-83